sensor_id;sensor_type;location;lat;lon;timestamp;temperature;humidity
4811;DHT22;2419;51.276;6.472;2022-08-07T00:00:24;14.50;99.90
4811;DHT22;2419;51.276;6.472;2022-08-07T00:02:52;14.50;99.90
4811;DHT22;2419;51.276;6.472;2022-08-07T00:05:23;14.50;99.90
4811;DHT22;2419;51.276;6.472;2022-08-07T00:07:53;14.30;99.90
4811;DHT22;2419;51.276;6.472;2022-08-07T00:10:26;14.20;99.90
4811;DHT22;2419;51.276;6.472;2022-08-07T00:12:58;14.20;99.90
4811;DHT22;2419;51.276;6.472;2022-08-07T00:15:48;14.00;99.90
4811;DHT22;2419;51.276;6.472;2022-08-07T00:18:18;13.70;99.90
4811;DHT22;2419;51.276;6.472;2022-08-07T00:20:52;13.60;99.90
4811;DHT22;2419;51.276;6.472;2022-08-07T00:23:23;13.40;99.90
4811;DHT22;2419;51.276;6.472;2022-08-07T00:25:54;13.40;99.90
4811;DHT22;2419;51.276;6.472;2022-08-07T00:28:28;13.40;99.90
4811;DHT22;2419;51.276;6.472;2022-08-07T00:31:01;13.30;99.90
4811;DHT22;2419;51.276;6.472;2022-08-07T00:33:32;13.40;99.90
4811;DHT22;2419;51.276;6.472;2022-08-07T00:36:04;13.40;99.90
4811;DHT22;2419;51.276;6.472;2022-08-07T00:38:32;13.60;99.90
4811;DHT22;2419;51.276;6.472;2022-08-07T00:41:05;13.60;99.90
4811;DHT22;2419;51.276;6.472;2022-08-07T00:43:40;13.60;99.90
4811;DHT22;2419;51.276;6.472;2022-08-07T00:46:29;13.60;99.90
4811;DHT22;2419;51.276;6.472;2022-08-07T00:49:00;13.60;99.90
4811;DHT22;2419;51.276;6.472;2022-08-07T00:51:30;13.50;99.90
4811;DHT22;2419;51.276;6.472;2022-08-07T00:54:19;13.50;99.90
4811;DHT22;2419;51.276;6.472;2022-08-07T00:56:49;13.40;99.90
4811;DHT22;2419;51.276;6.472;2022-08-07T00:59:17;13.40;99.90
4811;DHT22;2419;51.276;6.472;2022-08-07T01:02:02;13.20;99.90
4811;DHT22;2419;51.276;6.472;2022-08-07T01:04:35;13.10;99.90
4811;DHT22;2419;51.276;6.472;2022-08-07T01:07:12;13.10;99.90
4811;DHT22;2419;51.276;6.472;2022-08-07T01:09:41;13.10;99.90
4811;DHT22;2419;51.276;6.472;2022-08-07T01:12:29;13.20;99.90
4811;DHT22;2419;51.276;6.472;2022-08-07T01:14:59;13.10;99.90
4811;DHT22;2419;51.276;6.472;2022-08-07T01:17:32;13.10;99.90
4811;DHT22;2419;51.276;6.472;2022-08-07T01:20:09;13.10;99.90
4811;DHT22;2419;51.276;6.472;2022-08-07T01:22:46;13.10;99.90
4811;DHT22;2419;51.276;6.472;2022-08-07T01:25:36;13.00;99.90
4811;DHT22;2419;51.276;6.472;2022-08-07T01:28:23;13.10;99.90
4811;DHT22;2419;51.276;6.472;2022-08-07T01:30:55;13.10;99.90
4811;DHT22;2419;51.276;6.472;2022-08-07T01:33:35;13.10;99.90
4811;DHT22;2419;51.276;6.472;2022-08-07T01:36:25;13.10;99.90
4811;DHT22;2419;51.276;6.472;2022-08-07T01:39:16;13.10;99.90
4811;DHT22;2419;51.276;6.472;2022-08-07T01:42:28;12.90;99.90
4811;DHT22;2419;51.276;6.472;2022-08-07T01:45:31;12.70;99.90
4811;DHT22;2419;51.276;6.472;2022-08-07T01:48:15;12.70;99.90
4811;DHT22;2419;51.276;6.472;2022-08-07T01:50:59;12.90;99.90
4811;DHT22;2419;51.276;6.472;2022-08-07T01:53:51;13.00;99.90
4811;DHT22;2419;51.276;6.472;2022-08-07T01:56:51;13.10;99.90
4811;DHT22;2419;51.276;6.472;2022-08-07T01:59:24;13.20;99.90
4811;DHT22;2419;51.276;6.472;2022-08-07T02:02:02;13.20;99.90
4811;DHT22;2419;51.276;6.472;2022-08-07T02:04:39;13.20;99.90
4811;DHT22;2419;51.276;6.472;2022-08-07T02:07:28;13.30;99.90
4811;DHT22;2419;51.276;6.472;2022-08-07T02:10:22;13.30;99.90
4811;DHT22;2419;51.276;6.472;2022-08-07T02:12:57;13.30;99.90
4811;DHT22;2419;51.276;6.472;2022-08-07T02:15:33;13.30;99.90
4811;DHT22;2419;51.276;6.472;2022-08-07T02:18:04;13.30;99.90
4811;DHT22;2419;51.276;6.472;2022-08-07T02:20:34;13.20;99.90
4811;DHT22;2419;51.276;6.472;2022-08-07T02:23:05;13.10;99.90
4811;DHT22;2419;51.276;6.472;2022-08-07T02:25:39;13.00;99.90
4811;DHT22;2419;51.276;6.472;2022-08-07T02:28:30;13.10;99.90
4811;DHT22;2419;51.276;6.472;2022-08-07T02:31:04;13.10;99.90
4811;DHT22;2419;51.276;6.472;2022-08-07T02:33:54;13.10;99.90
4811;DHT22;2419;51.276;6.472;2022-08-07T02:36:45;13.00;99.90
4811;DHT22;2419;51.276;6.472;2022-08-07T02:39:16;13.10;99.90
4811;DHT22;2419;51.276;6.472;2022-08-07T02:42:06;13.10;99.90
4811;DHT22;2419;51.276;6.472;2022-08-07T02:44:44;12.90;99.90
4811;DHT22;2419;51.276;6.472;2022-08-07T02:47:17;12.80;99.90
4811;DHT22;2419;51.276;6.472;2022-08-07T02:50:15;12.50;99.90
4811;DHT22;2419;51.276;6.472;2022-08-07T02:52:47;12.40;99.90
4811;DHT22;2419;51.276;6.472;2022-08-07T02:55:20;12.30;99.90
4811;DHT22;2419;51.276;6.472;2022-08-07T02:58:11;12.40;99.90
4811;DHT22;2419;51.276;6.472;2022-08-07T03:00:43;12.50;99.90
4811;DHT22;2419;51.276;6.472;2022-08-07T03:03:16;12.50;99.90
4811;DHT22;2419;51.276;6.472;2022-08-07T03:05:53;12.50;99.90
4811;DHT22;2419;51.276;6.472;2022-08-07T03:08:22;12.40;99.90
4811;DHT22;2419;51.276;6.472;2022-08-07T03:10:57;12.20;99.90
4811;DHT22;2419;51.276;6.472;2022-08-07T03:13:32;12.10;99.90
4811;DHT22;2419;51.276;6.472;2022-08-07T03:16:17;12.00;99.90
4811;DHT22;2419;51.276;6.472;2022-08-07T03:18:54;12.00;99.90
4811;DHT22;2419;51.276;6.472;2022-08-07T03:21:22;12.10;99.90
4811;DHT22;2419;51.276;6.472;2022-08-07T03:23:54;12.10;99.90
4811;DHT22;2419;51.276;6.472;2022-08-07T03:26:44;12.10;99.90
4811;DHT22;2419;51.276;6.472;2022-08-07T03:29:31;12.00;99.90
4811;DHT22;2419;51.276;6.472;2022-08-07T03:32:08;11.80;99.90
4811;DHT22;2419;51.276;6.472;2022-08-07T03:34:42;11.70;99.90
4811;DHT22;2419;51.276;6.472;2022-08-07T03:37:32;11.80;99.90
4811;DHT22;2419;51.276;6.472;2022-08-07T03:40:20;11.70;99.90
4811;DHT22;2419;51.276;6.472;2022-08-07T03:42:59;11.70;99.90
4811;DHT22;2419;51.276;6.472;2022-08-07T03:45:31;11.70;99.90
4811;DHT22;2419;51.276;6.472;2022-08-07T03:48:11;11.60;99.90
4811;DHT22;2419;51.276;6.472;2022-08-07T03:50:39;11.60;99.90
4811;DHT22;2419;51.276;6.472;2022-08-07T03:53:22;11.50;99.90
4811;DHT22;2419;51.276;6.472;2022-08-07T03:56:15;11.40;99.90
4811;DHT22;2419;51.276;6.472;2022-08-07T03:59:01;11.50;99.90
4811;DHT22;2419;51.276;6.472;2022-08-07T04:01:41;11.40;99.90
4811;DHT22;2419;51.276;6.472;2022-08-07T04:04:16;11.40;99.90
4811;DHT22;2419;51.276;6.472;2022-08-07T04:06:50;11.20;99.90
4811;DHT22;2419;51.276;6.472;2022-08-07T04:09:22;11.20;99.90
4811;DHT22;2419;51.276;6.472;2022-08-07T04:12:04;11.20;99.90
4811;DHT22;2419;51.276;6.472;2022-08-07T04:14:53;11.20;99.90
4811;DHT22;2419;51.276;6.472;2022-08-07T04:17:22;11.30;99.90
4811;DHT22;2419;51.276;6.472;2022-08-07T04:20:13;11.30;99.90
4811;DHT22;2419;51.276;6.472;2022-08-07T04:22:42;11.40;99.90
4811;DHT22;2419;51.276;6.472;2022-08-07T04:25:21;11.50;99.90
4811;DHT22;2419;51.276;6.472;2022-08-07T04:27:55;11.60;99.90
4811;DHT22;2419;51.276;6.472;2022-08-07T04:30:28;11.60;99.90
4811;DHT22;2419;51.276;6.472;2022-08-07T04:33:17;11.60;99.90
4811;DHT22;2419;51.276;6.472;2022-08-07T04:35:51;11.70;99.90
4811;DHT22;2419;51.276;6.472;2022-08-07T04:38:26;11.80;99.90
4811;DHT22;2419;51.276;6.472;2022-08-07T04:40:55;11.90;99.90
4811;DHT22;2419;51.276;6.472;2022-08-07T04:43:32;12.00;99.90
4811;DHT22;2419;51.276;6.472;2022-08-07T04:46:28;12.10;99.90
4811;DHT22;2419;51.276;6.472;2022-08-07T04:49:11;12.20;99.90
4811;DHT22;2419;51.276;6.472;2022-08-07T04:51:55;12.40;99.90
4811;DHT22;2419;51.276;6.472;2022-08-07T04:54:32;12.60;99.90
4811;DHT22;2419;51.276;6.472;2022-08-07T04:57:10;12.70;99.90
4811;DHT22;2419;51.276;6.472;2022-08-07T05:00:05;12.80;99.90
4811;DHT22;2419;51.276;6.472;2022-08-07T05:02:51;13.10;99.90
4811;DHT22;2419;51.276;6.472;2022-08-07T05:05:27;13.20;99.90
4811;DHT22;2419;51.276;6.472;2022-08-07T05:08:23;13.60;99.90
4811;DHT22;2419;51.276;6.472;2022-08-07T05:11:23;14.90;99.90
4811;DHT22;2419;51.276;6.472;2022-08-07T05:13:59;16.40;99.90
4811;DHT22;2419;51.276;6.472;2022-08-07T05:16:52;17.40;99.90
4811;DHT22;2419;51.276;6.472;2022-08-07T05:19:33;18.60;98.90
4811;DHT22;2419;51.276;6.472;2022-08-07T05:22:12;19.30;83.90
4811;DHT22;2419;51.276;6.472;2022-08-07T05:24:56;19.60;63.90
4811;DHT22;2419;51.276;6.472;2022-08-07T05:27:29;19.70;45.40
4811;DHT22;2419;51.276;6.472;2022-08-07T05:30:20;20.20;36.20
4811;DHT22;2419;51.276;6.472;2022-08-07T05:33:01;20.20;15.80
4811;DHT22;2419;51.276;6.472;2022-08-07T05:35:31;20.60;1.00
4811;DHT22;2419;51.276;6.472;2022-08-07T05:38:10;19.80;15.30
4811;DHT22;2419;51.276;6.472;2022-08-07T05:41:00;19.40;48.50
4811;DHT22;2419;51.276;6.472;2022-08-07T05:43:41;18.90;64.30
4811;DHT22;2419;51.276;6.472;2022-08-07T05:46:31;18.50;81.70
4811;DHT22;2419;51.276;6.472;2022-08-07T05:49:04;17.90;96.00
4811;DHT22;2419;51.276;6.472;2022-08-07T05:51:42;17.20;99.90
4811;DHT22;2419;51.276;6.472;2022-08-07T05:54:16;16.80;99.90
4811;DHT22;2419;51.276;6.472;2022-08-07T05:57:08;16.30;99.90
4811;DHT22;2419;51.276;6.472;2022-08-07T05:59:39;15.80;99.90
4811;DHT22;2419;51.276;6.472;2022-08-07T06:02:27;16.10;99.90
4811;DHT22;2419;51.276;6.472;2022-08-07T06:05:03;16.20;99.90
4811;DHT22;2419;51.276;6.472;2022-08-07T06:07:33;16.00;99.90
4811;DHT22;2419;51.276;6.472;2022-08-07T06:10:23;16.20;99.90
4811;DHT22;2419;51.276;6.472;2022-08-07T06:12:53;16.10;99.90
4811;DHT22;2419;51.276;6.472;2022-08-07T06:15:22;16.10;99.90
4811;DHT22;2419;51.276;6.472;2022-08-07T06:18:11;16.10;99.90
4811;DHT22;2419;51.276;6.472;2022-08-07T06:20:42;16.00;99.90
4811;DHT22;2419;51.276;6.472;2022-08-07T06:23:33;16.10;99.90
4811;DHT22;2419;51.276;6.472;2022-08-07T06:26:23;16.20;99.90
4811;DHT22;2419;51.276;6.472;2022-08-07T06:28:57;16.30;99.90
4811;DHT22;2419;51.276;6.472;2022-08-07T06:31:30;16.50;99.90
4811;DHT22;2419;51.276;6.472;2022-08-07T06:34:18;16.50;99.90
4811;DHT22;2419;51.276;6.472;2022-08-07T06:36:55;16.40;99.90
4811;DHT22;2419;51.276;6.472;2022-08-07T06:39:30;16.50;99.90
4811;DHT22;2419;51.276;6.472;2022-08-07T06:42:23;16.50;99.90
4811;DHT22;2419;51.276;6.472;2022-08-07T06:45:13;16.60;99.90
4811;DHT22;2419;51.276;6.472;2022-08-07T06:47:49;16.70;99.90
4811;DHT22;2419;51.276;6.472;2022-08-07T06:50:31;16.70;99.90
4811;DHT22;2419;51.276;6.472;2022-08-07T06:53:05;16.80;99.90
4811;DHT22;2419;51.276;6.472;2022-08-07T06:55:54;16.90;99.90
4811;DHT22;2419;51.276;6.472;2022-08-07T06:58:30;17.00;97.80
4811;DHT22;2419;51.276;6.472;2022-08-07T07:01:08;17.10;93.40
4811;DHT22;2419;51.276;6.472;2022-08-07T07:03:40;17.30;86.50
4811;DHT22;2419;51.276;6.472;2022-08-07T07:06:16;17.40;48.30
4811;DHT22;2419;51.276;6.472;2022-08-07T07:08:49;17.40;53.90
4811;DHT22;2419;51.276;6.472;2022-08-07T07:11:18;17.50;37.80
4811;DHT22;2419;51.276;6.472;2022-08-07T07:14:06;17.60;41.90
4811;DHT22;2419;51.276;6.472;2022-08-07T07:16:38;17.70;28.50
4811;DHT22;2419;51.276;6.472;2022-08-07T07:19:22;17.80;99.90
4811;DHT22;2419;51.276;6.472;2022-08-07T07:22:13;17.90;99.90
4811;DHT22;2419;51.276;6.472;2022-08-07T07:25:03;18.10;99.90
4811;DHT22;2419;51.276;6.472;2022-08-07T07:27:56;18.20;99.90
4811;DHT22;2419;51.276;6.472;2022-08-07T07:30:32;18.30;99.90
4811;DHT22;2419;51.276;6.472;2022-08-07T07:33:09;18.40;99.90
4811;DHT22;2419;51.276;6.472;2022-08-07T07:35:41;18.30;99.90
4811;DHT22;2419;51.276;6.472;2022-08-07T07:38:30;18.50;99.90
4811;DHT22;2419;51.276;6.472;2022-08-07T07:41:05;18.60;99.90
4811;DHT22;2419;51.276;6.472;2022-08-07T07:43:38;18.70;99.90
4811;DHT22;2419;51.276;6.472;2022-08-07T07:46:28;18.80;99.90
4811;DHT22;2419;51.276;6.472;2022-08-07T07:49:19;18.80;99.90
4811;DHT22;2419;51.276;6.472;2022-08-07T07:52:09;18.90;99.90
4811;DHT22;2419;51.276;6.472;2022-08-07T07:54:39;19.00;99.90
4811;DHT22;2419;51.276;6.472;2022-08-07T07:57:18;19.10;99.90
4811;DHT22;2419;51.276;6.472;2022-08-07T08:00:08;19.20;99.70
4811;DHT22;2419;51.276;6.472;2022-08-07T08:02:40;19.20;98.50
4811;DHT22;2419;51.276;6.472;2022-08-07T08:05:30;19.30;97.30
4811;DHT22;2419;51.276;6.472;2022-08-07T08:08:19;19.30;96.80
4811;DHT22;2419;51.276;6.472;2022-08-07T08:11:05;19.40;97.00
4811;DHT22;2419;51.276;6.472;2022-08-07T08:13:42;19.50;95.40
4811;DHT22;2419;51.276;6.472;2022-08-07T08:16:25;19.50;95.70
4811;DHT22;2419;51.276;6.472;2022-08-07T08:18:58;19.60;95.80
4811;DHT22;2419;51.276;6.472;2022-08-07T08:21:49;19.90;93.10
4811;DHT22;2419;51.276;6.472;2022-08-07T08:24:39;19.90;91.50
4811;DHT22;2419;51.276;6.472;2022-08-07T08:27:49;20.10;92.00
4811;DHT22;2419;51.276;6.472;2022-08-07T08:30:24;20.20;93.50
4811;DHT22;2419;51.276;6.472;2022-08-07T08:32:58;20.20;93.10
4811;DHT22;2419;51.276;6.472;2022-08-07T08:35:28;20.30;92.50
4811;DHT22;2419;51.276;6.472;2022-08-07T08:38:17;20.40;92.40
4811;DHT22;2419;51.276;6.472;2022-08-07T08:40:50;20.40;92.30
4811;DHT22;2419;51.276;6.472;2022-08-07T08:43:32;20.50;90.70
4811;DHT22;2419;51.276;6.472;2022-08-07T08:46:11;20.50;89.60
4811;DHT22;2419;51.276;6.472;2022-08-07T08:48:48;20.60;90.10
4811;DHT22;2419;51.276;6.472;2022-08-07T08:51:26;20.80;90.00
4811;DHT22;2419;51.276;6.472;2022-08-07T08:54:34;20.80;88.50
4811;DHT22;2419;51.276;6.472;2022-08-07T08:57:12;21.10;86.70
4811;DHT22;2419;51.276;6.472;2022-08-07T08:59:49;21.20;86.60
4811;DHT22;2419;51.276;6.472;2022-08-07T09:02:28;21.10;84.70
4811;DHT22;2419;51.276;6.472;2022-08-07T09:05:15;21.20;87.20
4811;DHT22;2419;51.276;6.472;2022-08-07T09:07:46;21.40;82.20
4811;DHT22;2419;51.276;6.472;2022-08-07T09:10:33;21.40;82.20
4811;DHT22;2419;51.276;6.472;2022-08-07T09:13:14;21.70;84.80
4811;DHT22;2419;51.276;6.472;2022-08-07T09:16:07;22.00;85.90
4811;DHT22;2419;51.276;6.472;2022-08-07T09:19:09;22.50;81.20
4811;DHT22;2419;51.276;6.472;2022-08-07T09:22:10;23.60;79.80
4811;DHT22;2419;51.276;6.472;2022-08-07T09:25:06;25.20;74.50
4811;DHT22;2419;51.276;6.472;2022-08-07T09:27:51;26.30;71.30
4811;DHT22;2419;51.276;6.472;2022-08-07T09:30:34;27.00;67.50
4811;DHT22;2419;51.276;6.472;2022-08-07T09:33:11;27.30;66.60
4811;DHT22;2419;51.276;6.472;2022-08-07T09:36:11;27.60;65.30
4811;DHT22;2419;51.276;6.472;2022-08-07T09:38:50;28.60;63.80
4811;DHT22;2419;51.276;6.472;2022-08-07T09:41:29;28.40;60.90
4811;DHT22;2419;51.276;6.472;2022-08-07T09:44:28;27.80;62.50
4811;DHT22;2419;51.276;6.472;2022-08-07T09:47:32;28.70;61.60
4811;DHT22;2419;51.276;6.472;2022-08-07T09:50:32;28.20;59.40
4811;DHT22;2419;51.276;6.472;2022-08-07T09:53:08;28.90;59.20
4811;DHT22;2419;51.276;6.472;2022-08-07T09:55:55;28.80;58.50
4811;DHT22;2419;51.276;6.472;2022-08-07T09:58:56;29.30;57.00
4811;DHT22;2419;51.276;6.472;2022-08-07T10:01:51;29.10;56.50
4811;DHT22;2419;51.276;6.472;2022-08-07T10:04:30;28.00;57.90
4811;DHT22;2419;51.276;6.472;2022-08-07T10:07:20;27.70;56.70
4811;DHT22;2419;51.276;6.472;2022-08-07T10:10:13;28.30;56.20
4811;DHT22;2419;51.276;6.472;2022-08-07T10:16:21;27.90;56.50
4811;DHT22;2419;51.276;6.472;2022-08-07T10:19:17;27.90;58.00
4811;DHT22;2419;51.276;6.472;2022-08-07T10:21:52;27.40;58.80
4811;DHT22;2419;51.276;6.472;2022-08-07T10:25:18;28.10;58.90
4811;DHT22;2419;51.276;6.472;2022-08-07T10:28:09;28.50;57.70
4811;DHT22;2419;51.276;6.472;2022-08-07T10:30:54;28.70;56.70
4811;DHT22;2419;51.276;6.472;2022-08-07T10:33:55;28.60;56.70
4811;DHT22;2419;51.276;6.472;2022-08-07T10:36:50;29.40;56.00
4811;DHT22;2419;51.276;6.472;2022-08-07T10:39:32;29.50;55.20
4811;DHT22;2419;51.276;6.472;2022-08-07T10:42:30;29.30;55.50
4811;DHT22;2419;51.276;6.472;2022-08-07T10:45:13;30.10;54.70
4811;DHT22;2419;51.276;6.472;2022-08-07T10:47:50;29.20;55.90
4811;DHT22;2419;51.276;6.472;2022-08-07T10:50:34;29.10;56.30
4811;DHT22;2419;51.276;6.472;2022-08-07T10:53:24;29.50;55.30
4811;DHT22;2419;51.276;6.472;2022-08-07T10:56:01;29.80;54.70
4811;DHT22;2419;51.276;6.472;2022-08-07T10:58:41;30.00;55.30
4811;DHT22;2419;51.276;6.472;2022-08-07T11:01:34;30.00;55.50
4811;DHT22;2419;51.276;6.472;2022-08-07T11:04:34;30.10;54.10
4811;DHT22;2419;51.276;6.472;2022-08-07T11:07:16;30.70;54.00
4811;DHT22;2419;51.276;6.472;2022-08-07T11:10:15;30.00;53.70
4811;DHT22;2419;51.276;6.472;2022-08-07T11:12:49;30.70;54.60
4811;DHT22;2419;51.276;6.472;2022-08-07T11:15:32;31.20;53.60
4811;DHT22;2419;51.276;6.472;2022-08-07T11:18:04;31.40;53.50
4811;DHT22;2419;51.276;6.472;2022-08-07T11:20:45;31.20;53.20
4811;DHT22;2419;51.276;6.472;2022-08-07T11:23:22;30.60;54.20
4811;DHT22;2419;51.276;6.472;2022-08-07T11:26:10;31.50;53.70
4811;DHT22;2419;51.276;6.472;2022-08-07T11:28:46;31.30;52.90
4811;DHT22;2419;51.276;6.472;2022-08-07T11:31:26;31.40;52.20
4811;DHT22;2419;51.276;6.472;2022-08-07T11:34:08;31.50;52.40
4811;DHT22;2419;51.276;6.472;2022-08-07T11:36:48;32.30;52.20
4811;DHT22;2419;51.276;6.472;2022-08-07T11:39:38;32.30;50.10
4811;DHT22;2419;51.276;6.472;2022-08-07T11:42:38;31.80;51.60
4811;DHT22;2419;51.276;6.472;2022-08-07T11:45:17;31.70;51.40
4811;DHT22;2419;51.276;6.472;2022-08-07T11:51:16;31.70;51.30
4811;DHT22;2419;51.276;6.472;2022-08-07T11:54:22;31.50;52.90
4811;DHT22;2419;51.276;6.472;2022-08-07T11:57:08;30.60;51.10
4811;DHT22;2419;51.276;6.472;2022-08-07T12:00:03;30.60;51.20
4811;DHT22;2419;51.276;6.472;2022-08-07T12:06:28;31.70;52.60
4811;DHT22;2419;51.276;6.472;2022-08-07T12:09:09;31.60;52.60
4811;DHT22;2419;51.276;6.472;2022-08-07T12:11:46;31.00;51.10
4811;DHT22;2419;51.276;6.472;2022-08-07T12:14:43;30.70;53.00
4811;DHT22;2419;51.276;6.472;2022-08-07T12:17:35;31.20;51.20
4811;DHT22;2419;51.276;6.472;2022-08-07T12:20:09;30.50;51.60
4811;DHT22;2419;51.276;6.472;2022-08-07T12:23:13;30.40;53.00
4811;DHT22;2419;51.276;6.472;2022-08-07T12:25:51;30.80;53.20
4811;DHT22;2419;51.276;6.472;2022-08-07T12:28:48;31.10;52.70
4811;DHT22;2419;51.276;6.472;2022-08-07T12:31:26;30.90;51.70
4811;DHT22;2419;51.276;6.472;2022-08-07T12:34:18;31.00;51.80
4811;DHT22;2419;51.276;6.472;2022-08-07T12:36:50;31.30;52.90
4811;DHT22;2419;51.276;6.472;2022-08-07T12:39:20;31.20;52.60
4811;DHT22;2419;51.276;6.472;2022-08-07T12:42:09;31.20;51.60
4811;DHT22;2419;51.276;6.472;2022-08-07T12:44:40;30.30;50.80
4811;DHT22;2419;51.276;6.472;2022-08-07T12:47:19;29.50;51.40
4811;DHT22;2419;51.276;6.472;2022-08-07T12:50:02;29.70;53.70
4811;DHT22;2419;51.276;6.472;2022-08-07T12:52:59;29.70;53.10
4811;DHT22;2419;51.276;6.472;2022-08-07T12:55:49;30.60;53.80
4811;DHT22;2419;51.276;6.472;2022-08-07T12:58:34;30.70;52.00
4811;DHT22;2419;51.276;6.472;2022-08-07T13:01:14;30.60;52.50
4811;DHT22;2419;51.276;6.472;2022-08-07T13:03:54;30.90;52.70
4811;DHT22;2419;51.276;6.472;2022-08-07T13:06:58;30.70;52.40
4811;DHT22;2419;51.276;6.472;2022-08-07T13:09:45;30.80;52.00
4811;DHT22;2419;51.276;6.472;2022-08-07T13:12:49;30.90;52.20
4811;DHT22;2419;51.276;6.472;2022-08-07T13:15:25;30.40;51.40
4811;DHT22;2419;51.276;6.472;2022-08-07T13:18:20;29.70;51.30
4811;DHT22;2419;51.276;6.472;2022-08-07T13:20:58;29.10;53.10
4811;DHT22;2419;51.276;6.472;2022-08-07T13:23:38;28.50;53.30
4811;DHT22;2419;51.276;6.472;2022-08-07T13:26:33;28.40;53.50
4811;DHT22;2419;51.276;6.472;2022-08-07T13:29:09;28.30;55.10
4811;DHT22;2419;51.276;6.472;2022-08-07T13:31:43;28.20;54.20
4811;DHT22;2419;51.276;6.472;2022-08-07T13:34:32;28.10;54.20
4811;DHT22;2419;51.276;6.472;2022-08-07T13:37:05;27.90;54.00
4811;DHT22;2419;51.276;6.472;2022-08-07T13:40:08;27.60;55.60
4811;DHT22;2419;51.276;6.472;2022-08-07T13:43:00;27.50;55.00
4811;DHT22;2419;51.276;6.472;2022-08-07T13:45:29;27.60;55.30
4811;DHT22;2419;51.276;6.472;2022-08-07T13:48:20;27.20;55.00
4811;DHT22;2419;51.276;6.472;2022-08-07T13:51:00;27.20;57.10
4811;DHT22;2419;51.276;6.472;2022-08-07T13:53:51;27.50;56.40
4811;DHT22;2419;51.276;6.472;2022-08-07T13:56:31;27.60;56.20
4811;DHT22;2419;51.276;6.472;2022-08-07T13:59:01;27.20;54.20
4811;DHT22;2419;51.276;6.472;2022-08-07T14:01:48;26.90;55.10
4811;DHT22;2419;51.276;6.472;2022-08-07T14:04:33;26.90;56.20
4811;DHT22;2419;51.276;6.472;2022-08-07T14:07:17;27.10;56.20
4811;DHT22;2419;51.276;6.472;2022-08-07T14:09:53;27.00;56.10
4811;DHT22;2419;51.276;6.472;2022-08-07T14:12:49;27.10;55.40
4811;DHT22;2419;51.276;6.472;2022-08-07T14:15:27;27.30;56.40
4811;DHT22;2419;51.276;6.472;2022-08-07T14:18:03;27.30;55.80
4811;DHT22;2419;51.276;6.472;2022-08-07T14:21:00;27.10;55.90
4811;DHT22;2419;51.276;6.472;2022-08-07T14:23:39;27.10;56.90
4811;DHT22;2419;51.276;6.472;2022-08-07T14:26:36;27.10;56.60
4811;DHT22;2419;51.276;6.472;2022-08-07T14:29:11;26.80;56.60
4811;DHT22;2419;51.276;6.472;2022-08-07T14:32:02;26.80;57.50
4811;DHT22;2419;51.276;6.472;2022-08-07T14:34:32;27.00;57.00
4811;DHT22;2419;51.276;6.472;2022-08-07T14:37:14;26.90;56.20
4811;DHT22;2419;51.276;6.472;2022-08-07T14:39:44;27.00;57.00
4811;DHT22;2419;51.276;6.472;2022-08-07T14:42:34;26.80;56.50
4811;DHT22;2419;51.276;6.472;2022-08-07T14:45:28;26.90;56.80
4811;DHT22;2419;51.276;6.472;2022-08-07T14:48:18;26.80;55.90
4811;DHT22;2419;51.276;6.472;2022-08-07T14:50:49;26.70;57.30
4811;DHT22;2419;51.276;6.472;2022-08-07T14:53:20;26.80;56.60
4811;DHT22;2419;51.276;6.472;2022-08-07T14:56:09;26.80;56.20
4811;DHT22;2419;51.276;6.472;2022-08-07T14:58:42;26.70;55.00
4811;DHT22;2419;51.276;6.472;2022-08-07T15:01:21;26.70;55.40
4811;DHT22;2419;51.276;6.472;2022-08-07T15:03:50;26.70;56.40
4811;DHT22;2419;51.276;6.472;2022-08-07T15:06:24;26.70;57.00
4811;DHT22;2419;51.276;6.472;2022-08-07T15:08:53;26.70;56.50
4811;DHT22;2419;51.276;6.472;2022-08-07T15:11:23;26.80;56.90
4811;DHT22;2419;51.276;6.472;2022-08-07T15:14:15;26.70;58.00
4811;DHT22;2419;51.276;6.472;2022-08-07T15:16:48;26.60;57.50
4811;DHT22;2419;51.276;6.472;2022-08-07T15:19:25;26.50;57.90
4811;DHT22;2419;51.276;6.472;2022-08-07T15:22:15;26.50;57.80
4811;DHT22;2419;51.276;6.472;2022-08-07T15:25:02;26.50;58.10
4811;DHT22;2419;51.276;6.472;2022-08-07T15:27:55;26.50;58.20
4811;DHT22;2419;51.276;6.472;2022-08-07T15:30:46;26.50;58.10
4811;DHT22;2419;51.276;6.472;2022-08-07T15:33:33;26.30;58.40
4811;DHT22;2419;51.276;6.472;2022-08-07T15:36:05;26.20;57.60
4811;DHT22;2419;51.276;6.472;2022-08-07T15:38:35;26.20;56.90
4811;DHT22;2419;51.276;6.472;2022-08-07T15:41:25;26.10;58.70
4811;DHT22;2419;51.276;6.472;2022-08-07T15:44:19;26.20;57.30
4811;DHT22;2419;51.276;6.472;2022-08-07T15:47:10;26.30;57.70
4811;DHT22;2419;51.276;6.472;2022-08-07T15:49:47;26.10;57.50
4811;DHT22;2419;51.276;6.472;2022-08-07T15:52:34;25.70;57.30
4811;DHT22;2419;51.276;6.472;2022-08-07T15:55:06;25.80;58.50
4811;DHT22;2419;51.276;6.472;2022-08-07T15:57:39;25.90;58.80
4811;DHT22;2419;51.276;6.472;2022-08-07T16:00:15;25.80;58.70
4811;DHT22;2419;51.276;6.472;2022-08-07T16:03:07;25.90;59.10
4811;DHT22;2419;51.276;6.472;2022-08-07T16:05:59;25.70;58.30
4811;DHT22;2419;51.276;6.472;2022-08-07T16:08:29;25.60;59.00
4811;DHT22;2419;51.276;6.472;2022-08-07T16:11:08;25.50;59.30
4811;DHT22;2419;51.276;6.472;2022-08-07T16:14:06;25.40;58.60
4811;DHT22;2419;51.276;6.472;2022-08-07T16:16:53;25.30;59.20
4811;DHT22;2419;51.276;6.472;2022-08-07T16:19:51;25.20;58.70
4811;DHT22;2419;51.276;6.472;2022-08-07T16:22:39;25.30;59.60
4811;DHT22;2419;51.276;6.472;2022-08-07T16:25:32;25.20;59.40
4811;DHT22;2419;51.276;6.472;2022-08-07T16:28:31;25.20;58.10
4811;DHT22;2419;51.276;6.472;2022-08-07T16:31:30;25.30;58.90
4811;DHT22;2419;51.276;6.472;2022-08-07T16:34:23;25.20;59.80
4811;DHT22;2419;51.276;6.472;2022-08-07T16:37:08;25.20;58.50
4811;DHT22;2419;51.276;6.472;2022-08-07T16:43:09;25.20;58.20
4811;DHT22;2419;51.276;6.472;2022-08-07T16:45:52;25.20;58.50
4811;DHT22;2419;51.276;6.472;2022-08-07T16:49:23;25.20;58.50
4811;DHT22;2419;51.276;6.472;2022-08-07T16:52:24;25.10;58.20
4811;DHT22;2419;51.276;6.472;2022-08-07T16:55:25;25.10;59.00
4811;DHT22;2419;51.276;6.472;2022-08-07T16:58:22;25.00;59.10
4811;DHT22;2419;51.276;6.472;2022-08-07T17:01:28;24.90;59.10
4811;DHT22;2419;51.276;6.472;2022-08-07T17:04:10;24.80;58.90
4811;DHT22;2419;51.276;6.472;2022-08-07T17:06:48;24.70;59.10
4811;DHT22;2419;51.276;6.472;2022-08-07T17:09:34;24.70;59.90
4811;DHT22;2419;51.276;6.472;2022-08-07T17:12:33;24.80;59.20
4811;DHT22;2419;51.276;6.472;2022-08-07T17:15:18;24.80;59.20
4811;DHT22;2419;51.276;6.472;2022-08-07T17:18:13;24.80;59.70
4811;DHT22;2419;51.276;6.472;2022-08-07T17:20:44;24.60;60.00
4811;DHT22;2419;51.276;6.472;2022-08-07T17:23:36;24.50;60.00
4811;DHT22;2419;51.276;6.472;2022-08-07T17:26:16;24.40;60.00
4811;DHT22;2419;51.276;6.472;2022-08-07T17:29:14;24.40;60.60
4811;DHT22;2419;51.276;6.472;2022-08-07T17:32:14;24.40;60.30
4811;DHT22;2419;51.276;6.472;2022-08-07T17:35:06;24.30;60.00
4811;DHT22;2419;51.276;6.472;2022-08-07T17:38:00;24.20;59.90
4811;DHT22;2419;51.276;6.472;2022-08-07T17:40:41;24.20;61.30
4811;DHT22;2419;51.276;6.472;2022-08-07T17:43:21;24.10;60.80
4811;DHT22;2419;51.276;6.472;2022-08-07T17:46:16;23.90;60.30
4811;DHT22;2419;51.276;6.472;2022-08-07T17:49:06;23.80;61.30
4811;DHT22;2419;51.276;6.472;2022-08-07T17:51:46;23.70;61.70
4811;DHT22;2419;51.276;6.472;2022-08-07T17:54:34;23.50;62.50
4811;DHT22;2419;51.276;6.472;2022-08-07T17:57:23;23.40;62.20